Dubach, Louisiana
Current Conditions -  °F | °C
As of 9:35 PM on Monday 26 Jan 2015 (Local Time) from KRSN Reporting Station
Clear Clear  
Wind Chill: 50°   Ceiling: Unl
Heat Index: 50°   Visibility: 10mi
Dew Point: 37°   Wind: 0mph
Humidity: 61%   Direction: NA
Pressure: 30.09"   Gusts: NA
Location:  32.7°N, 92.66°W
Report Text: KRSN 270335Z AUTO 00000KT 10SM CLR 10/03 A3009 RMK AO2 T00980025
Loading
Personal Weather Stations






























Interactive Weather Map New forecast layout! Learn more

10-Day Weather Forecast

Advertisements
Track Severe Weather on mobile